EDT,Max TemperatureF,Mean TemperatureF,Min TemperatureF,Max Dew PointF,MeanDew PointF,Min DewpointF,Max Humidity, Mean Humidity, Min Humidity, Max Sea Level PressureIn, Mean Sea Level PressureIn, Min Sea Level PressureIn, Max VisibilityMiles, Mean VisibilityMiles, Min VisibilityMiles, Max Wind SpeedMPH, Mean Wind SpeedMPH, Max Gust SpeedMPH,PrecipitationIn, CloudCover, Events, WindDirDegrees
2011-9-1,89,78,66,69,67,64,100,73,46,30.17,30.11,30.06,10,10,7,15,5,20,0.00,0,Fog,34
2011-9-2,90,79,68,70,69,67,100,76,52,30.09,30.04,29.99,10,10,10,14,4,18,0.00,0,Fog,151
2011-9-3,87,80,72,71,70,63,93,68,43,30.01,29.98,29.95,10,10,10,15,5,18,0.00,4,,97
2011-9-4,84,77,69,74,71,67,100,83,65,29.97,29.93,29.89,10,10,7,17,4,21,T,5,Rain,156
2011-9-5,89,82,74,78,75,72,94,79,63,29.89,29.82,29.75,10,10,10,22,11,28,T,6,Rain,181
2011-9-6,89,80,71,79,76,67,88,75,61,29.88,29.78,29.73,10,8,1,31,15,50,0.52,5,Rain-Thunderstorm,196
2011-9-7,83,73,63,64,61,56,87,64,40,29.96,29.92,29.89,10,10,10,17,6,23,0.00,3,,242
2011-9-8,83,73,62,66,61,58,93,69,45,29.94,29.90,29.85,10,10,10,15,7,21,0.00,2,,245
2011-9-9,85,74,62,65,60,57,90,65,40,29.95,29.92,29.88,10,10,10,14,6,23,0.00,1,,244
2011-9-10,89,78,66,68,62,56,93,64,34,30.03,29.98,29.94,10,10,10,14,5,17,0.00,0,,256
2011-9-11,89,77,64,70,66,62,100,71,41,30.09,30.04,30.01,10,10,7,16,4,23,0.00,2,,156
2011-9-12,87,77,67,71,69,66,100,75,50,30.10,30.03,29.98,10,10,6,13,4,15,0.03,3,Fog-Rain,199
2011-9-13,89,79,69,73,70,62,100,74,47,30.02,29.99,29.96,10,10,8,20,4,24,0.00,3,Fog,120
2011-9-14,89,80,71,75,70,63,100,72,43,30.01,29.97,29.94,10,10,7,14,4,23,0.00,4,Fog,145
2011-9-15,91,80,68,76,70,66,100,72,44,29.96,29.93,29.87,10,10,7,14,6,17,0.00,2,Fog,204
2011-9-16,80,70,60,76,61,53,93,80,66,30.20,30.11,29.95,10,10,3,25,13,33,0.33,8,Rain-Thunderstorm,24
2011-9-17,73,66,59,62,59,54,97,85,73,30.23,30.19,30.16,10,10,10,16,11,21,0.00,8,,4
2011-9-18,72,67,62,63,61,60,100,87,73,30.27,30.22,30.19,10,10,5,14,9,18,0.00,8,,23
2011-9-19,80,71,61,70,64,60,100,84,67,30.19,30.14,30.06,10,10,10,14,8,18,0.02,5,Rain,41
2011-9-20,84,77,69,73,71,69,100,87,74,30.11,30.06,30.04,10,10,10,14,6,22,T,6,Rain-Thunderstorm,77
2011-9-21,84,78,71,74,73,70,100,85,69,30.12,30.08,30.04,10,10,4,15,5,20,0.18,6,Rain,113
2011-9-22,84,78,72,75,73,71,100,90,79,30.14,30.10,30.06,10,9,1,22,6,29,0.64,6,Rain-Thunderstorm,32
2011-9-23,87,80,73,77,74,72,100,83,65,30.07,29.99,29.93,10,9,2,23,4,30,0.27,7,Rain-Thunderstorm,165
2011-9-24,87,80,72,77,74,73,100,87,74,29.99,29.95,29.91,10,8,0,14,4,17,0.86,5,Fog-Rain,78
2011-9-25,90,81,71,76,73,70,100,78,56,30.02,29.97,29.92,10,7,0,17,6,23,0.74,5,Rain-Thunderstorm,63
2011-9-26,87,80,73,76,75,71,100,85,70,29.99,29.94,29.89,10,10,7,17,6,23,T,6,Rain-Thunderstorm,158
2011-9-27,89,81,72,75,72,66,100,77,53,29.96,29.92,29.86,10,10,10,20,6,26,T,4,Thunderstorm,189
2011-9-28,89,79,69,75,71,68,100,78,55,29.92,29.87,29.82,10,10,7,16,5,28,0.01,3,Rain,216
2011-9-29,87,78,69,76,68,62,100,74,48,29.89,29.84,29.80,10,10,7,13,4,35,0.00,4,Thunderstorm,243
2011-9-30,87,76,65,71,62,48,100,69,37,29.85,29.77,29.67,10,10,9,17,8,23,0.00,2,,262